createdAt,value
2022-08-12T00:00:47.126Z,46.44
2022-08-12T00:03:31.954Z,46.67
2022-08-12T00:06:17.525Z,46.68
2022-08-12T00:09:02.408Z,46.97
2022-08-12T00:11:47.336Z,47.28
2022-08-12T00:14:32.757Z,47.27
2022-08-12T00:17:18.156Z,47.14
2022-08-12T00:20:03.985Z,47.45
2022-08-12T00:22:53.100Z,47.39
2022-08-12T00:26:20.929Z,47.32
2022-08-12T00:29:03.970Z,47.64
2022-08-12T00:31:49.229Z,47.53
2022-08-12T00:34:35.118Z,48.17
2022-08-12T00:37:20.320Z,48.12
2022-08-12T00:40:10.730Z,48.20
2022-08-12T00:42:40.891Z,47.95
2022-08-12T00:45:08.671Z,47.98
2022-08-12T00:47:35.332Z,48.15
2022-08-12T00:50:01.799Z,48.56
2022-08-12T00:52:28.181Z,48.38
2022-08-12T00:54:57.882Z,48.82
2022-08-12T00:57:30.302Z,49.28
2022-08-12T00:59:59.935Z,49.30
2022-08-12T01:02:27.949Z,49.14
2022-08-12T01:05:34.209Z,49.02
2022-08-12T01:08:19.032Z,49.54
2022-08-12T01:11:06.516Z,49.73
2022-08-12T01:13:36.012Z,49.94
2022-08-12T01:16:05.926Z,49.31
2022-08-12T01:18:36.889Z,49.60
2022-08-12T01:21:12.157Z,49.91
2022-08-12T01:24:30.266Z,50.13
2022-08-12T01:26:59.340Z,49.94
2022-08-12T01:29:32.968Z,50.21
2022-08-12T01:32:05.042Z,50.76
2022-08-12T01:34:37.518Z,50.11
2022-08-12T01:37:07.438Z,49.82
2022-08-12T01:40:30.847Z,50.15
2022-08-12T01:42:27.968Z,50.52
2022-08-12T01:44:55.574Z,51.22
2022-08-12T01:48:05.055Z,51.76
2022-08-12T01:50:40.493Z,51.00
2022-08-12T01:53:12.197Z,50.80
2022-08-12T01:55:45.154Z,50.99
2022-08-12T01:58:18.507Z,51.39
2022-08-12T02:00:55.538Z,51.15
2022-08-12T02:03:59.722Z,51.51
2022-08-12T02:06:51.929Z,51.33
2022-08-12T02:09:44.813Z,52.33
2022-08-12T02:12:39.064Z,51.90
2022-08-12T02:15:30.243Z,51.93
2022-08-12T02:18:03.911Z,51.64
2022-08-12T02:20:53.110Z,51.62
2022-08-12T02:23:26.459Z,51.89
2022-08-12T02:25:56.881Z,51.95
2022-08-12T02:28:24.200Z,52.51
2022-08-12T02:30:51.002Z,52.07
2022-08-12T02:33:19.369Z,52.17
2022-08-12T02:35:46.033Z,52.72
2022-08-12T02:38:12.649Z,52.48
2022-08-12T02:40:42.980Z,53.14
2022-08-12T02:43:21.451Z,53.21
2022-08-12T02:45:55.110Z,53.44
2022-08-12T02:48:46.235Z,54.04
2022-08-12T02:51:17.402Z,53.36
2022-08-12T02:53:45.215Z,53.27
2022-08-12T02:56:30.856Z,53.73
2022-08-12T02:58:58.570Z,53.83
2022-08-12T03:01:32.162Z,54.07
2022-08-12T03:04:00.447Z,53.83
2022-08-12T03:06:32.142Z,53.45
2022-08-12T03:09:01.818Z,54.18
2022-08-12T03:11:54.424Z,54.50
2022-08-12T03:14:21.751Z,54.09
2022-08-12T03:16:57.395Z,53.93
2022-08-12T03:19:24.666Z,54.01
2022-08-12T03:22:09.122Z,54.80
2022-08-12T03:24:38.838Z,54.24
2022-08-12T03:27:08.975Z,53.84
2022-08-12T03:29:43.418Z,54.07
2022-08-12T03:32:36.401Z,54.15
2022-08-12T03:35:07.207Z,54.50
2022-08-12T03:37:36.403Z,54.78
2022-08-12T03:40:03.573Z,55.51
2022-08-12T03:42:42.395Z,55.22
2022-08-12T03:45:52.530Z,55.43
2022-08-12T03:48:38.800Z,55.16
2022-08-12T03:51:24.195Z,55.20
2022-08-12T03:54:11.301Z,55.83
2022-08-12T03:56:57.775Z,55.27
2022-08-12T03:59:43.197Z,55.57
2022-08-12T04:02:14.692Z,55.84
2022-08-12T04:04:45.074Z,56.55
2022-08-12T04:07:14.055Z,55.81
2022-08-12T04:09:43.179Z,55.78
2022-08-12T04:12:39.509Z,56.25
2022-08-12T04:15:08.768Z,56.39
2022-08-12T04:17:36.084Z,56.42
2022-08-12T04:20:02.812Z,56.87
2022-08-12T04:22:30.177Z,56.35
2022-08-12T04:25:01.124Z,56.01
2022-08-12T04:27:29.960Z,56.07
2022-08-12T04:30:31.590Z,56.47
2022-08-12T04:32:44.891Z,56.40
2022-08-12T04:35:12.257Z,56.79
2022-08-12T04:37:59.195Z,57.36
2022-08-12T04:40:28.904Z,57.37
2022-08-12T04:42:55.884Z,57.67
2022-08-12T04:45:22.658Z,58.07
2022-08-12T04:47:49.338Z,57.90
2022-08-12T04:50:35.170Z,58.24
2022-08-12T04:53:08.495Z,58.28
2022-08-12T04:55:37.203Z,58.33
2022-08-12T04:58:03.668Z,57.74
2022-08-12T05:00:30.268Z,57.91
2022-08-12T05:02:56.874Z,58.63
2022-08-12T05:05:23.928Z,58.80
2022-08-12T05:07:54.357Z,58.79
2022-08-12T05:10:33.895Z,58.11
2022-08-12T05:13:07.267Z,58.55
2022-08-12T05:15:34.743Z,58.89
2022-08-12T05:18:19.293Z,58.50
2022-08-12T05:20:48.245Z,59.06
2022-08-12T05:23:17.384Z,58.74
2022-08-12T05:25:46.974Z,58.87
2022-08-12T05:28:14.308Z,59.42
2022-08-12T05:30:42.389Z,59.17
2022-08-12T05:33:09.978Z,58.70
2022-08-12T05:35:40.087Z,59.27
2022-08-12T05:38:26.066Z,59.22
2022-08-12T05:40:52.659Z,58.95
2022-08-12T05:43:19.076Z,59.18
2022-08-12T05:45:46.817Z,59.22
2022-08-12T05:48:13.544Z,59.56
2022-08-12T05:50:41.411Z,59.05
2022-08-12T05:53:08.111Z,59.84
2022-08-12T05:55:35.615Z,59.69
2022-08-12T05:58:02.989Z,59.30
2022-08-12T06:00:31.417Z,58.42
2022-08-12T06:03:02.118Z,58.22
2022-08-12T06:05:29.749Z,57.88
2022-08-12T06:08:02.077Z,58.05
2022-08-12T06:10:31.678Z,58.02
2022-08-12T06:13:04.412Z,57.81
2022-08-12T06:15:35.680Z,57.72
2022-08-12T06:18:11.469Z,57.42
2022-08-12T06:20:41.383Z,57.68
2022-08-12T06:23:10.767Z,57.52
2022-08-12T06:25:37.421Z,57.00
2022-08-12T06:28:14.618Z,56.18
2022-08-12T06:30:41.212Z,55.17
2022-08-12T06:33:21.939Z,55.45
2022-08-12T06:35:57.765Z,55.39
2022-08-12T06:38:26.868Z,55.66
2022-08-12T06:41:16.867Z,55.62
2022-08-12T06:44:07.188Z,54.83
2022-08-12T06:46:31.321Z,54.78
2022-08-12T06:48:58.818Z,54.25
2022-08-12T06:51:28.073Z,53.74
2022-08-12T06:53:55.811Z,53.08
2022-08-12T06:56:30.627Z,52.92
2022-08-12T06:59:11.123Z,52.50
2022-08-12T07:01:38.426Z,51.95
2022-08-12T07:04:26.405Z,52.12
2022-08-12T07:06:51.401Z,50.52
2022-08-12T07:10:01.226Z,50.78
2022-08-12T07:12:04.821Z,49.26
2022-08-12T07:14:31.588Z,48.94
2022-08-12T07:17:02.085Z,48.73
2022-08-12T07:19:45.180Z,48.86
2022-08-12T07:22:13.967Z,48.88
2022-08-12T07:24:40.410Z,49.19
2022-08-12T07:27:06.879Z,48.44
2022-08-12T07:30:02.525Z,48.40
2022-08-12T07:32:24.296Z,48.14
2022-08-12T07:34:50.697Z,47.85
2022-08-12T07:37:17.770Z,48.89
2022-08-12T07:39:51.270Z,48.96
2022-08-12T07:42:28.367Z,48.81
2022-08-12T07:44:55.767Z,48.80
2022-08-12T07:47:22.931Z,48.63
2022-08-12T07:50:05.082Z,48.18
2022-08-12T07:52:42.638Z,48.39
2022-08-12T07:55:10.697Z,47.77
2022-08-12T07:57:54.077Z,47.94
2022-08-12T08:00:20.883Z,47.90
2022-08-12T08:02:49.208Z,47.27
2022-08-12T08:05:16.143Z,46.62
2022-08-12T08:07:42.848Z,45.49
2022-08-12T08:10:11.440Z,45.61
2022-08-12T08:12:53.281Z,45.47
2022-08-12T08:15:20.991Z,44.84
2022-08-12T08:17:59.535Z,44.49
2022-08-12T08:20:30.419Z,43.69
2022-08-12T08:22:58.805Z,44.00
2022-08-12T08:25:35.788Z,43.01
2022-08-12T08:28:09.747Z,42.47
2022-08-12T08:30:39.623Z,42.94
2022-08-12T08:33:22.986Z,43.14
2022-08-12T08:35:55.560Z,43.01
2022-08-12T08:38:31.880Z,40.66
2022-08-12T08:42:19.027Z,41.05
2022-08-12T08:44:05.815Z,40.61
2022-08-12T08:46:37.531Z,41.30
2022-08-12T08:49:05.245Z,42.27
2022-08-12T08:51:31.983Z,39.91
2022-08-12T08:53:58.433Z,37.71
2022-08-12T08:56:24.841Z,35.90
2022-08-12T08:58:51.221Z,35.24
2022-08-12T09:01:22.283Z,35.00
2022-08-12T09:05:04.631Z,36.50
2022-08-12T09:09:23.786Z,35.32
2022-08-12T09:12:11.733Z,35.82
2022-08-12T09:14:43.526Z,35.71
2022-08-12T09:17:13.890Z,35.79
2022-08-12T09:19:53.658Z,34.57
2022-08-12T09:22:29.294Z,34.83
2022-08-12T09:24:56.048Z,34.67
2022-08-12T09:27:57.543Z,33.54
2022-08-12T09:30:15.947Z,34.15
2022-08-12T09:33:04.962Z,34.72
2022-08-12T09:35:44.266Z,35.45
2022-08-12T09:38:28.322Z,34.16
2022-08-12T09:42:08.910Z,31.86
2022-08-12T09:44:06.153Z,32.36
2022-08-12T09:46:34.522Z,32.71
2022-08-12T09:49:04.118Z,32.45
2022-08-12T09:51:43.565Z,32.44
2022-08-12T09:54:32.886Z,32.93
2022-08-12T09:57:03.840Z,32.36
2022-08-12T10:00:17.785Z,32.80
2022-08-12T10:02:45.121Z,32.30
2022-08-12T10:05:22.585Z,32.47
2022-08-12T10:08:11.239Z,32.49
2022-08-12T10:11:01.162Z,31.68
2022-08-12T10:13:43.881Z,31.75
2022-08-12T10:16:28.569Z,31.22
2022-08-12T10:19:02.124Z,30.96
2022-08-12T10:21:41.105Z,31.17
2022-08-12T10:24:11.421Z,31.22
2022-08-12T10:26:58.187Z,31.31
2022-08-12T10:30:37.939Z,31.23
2022-08-12T10:32:45.396Z,31.32
2022-08-12T10:35:15.235Z,30.83
2022-08-12T10:38:35.402Z,29.51
2022-08-12T10:40:33.125Z,30.53
2022-08-12T10:43:19.774Z,30.01
2022-08-12T10:45:48.935Z,29.11
2022-08-12T10:48:23.078Z,30.26
2022-08-12T10:51:02.435Z,28.42
2022-08-12T10:53:44.334Z,29.19
2022-08-12T10:56:17.064Z,27.97
2022-08-12T10:58:46.145Z,28.65
2022-08-12T11:01:49.197Z,29.83
2022-08-12T11:04:28.234Z,28.64
2022-08-12T11:07:06.996Z,28.53
2022-08-12T11:09:59.971Z,29.00
2022-08-12T11:12:55.162Z,30.60
2022-08-12T11:15:20.721Z,29.14
2022-08-12T11:17:52.996Z,29.13
2022-08-12T11:20:24.025Z,28.99
2022-08-12T11:22:59.355Z,29.47
2022-08-12T11:25:55.515Z,29.94
2022-08-12T11:28:13.986Z,29.09
2022-08-12T11:30:41.736Z,29.56
2022-08-12T11:33:12.248Z,27.47
2022-08-12T11:35:41.488Z,27.40
2022-08-12T11:38:10.174Z,28.05
2022-08-12T11:40:37.033Z,28.43
2022-08-12T11:43:18.912Z,29.15
2022-08-12T11:45:47.532Z,28.14
2022-08-12T11:48:15.560Z,27.29
2022-08-12T11:50:45.416Z,27.80
2022-08-12T11:53:57.611Z,27.79
2022-08-12T11:55:58.172Z,27.93
2022-08-12T11:59:36.000Z,27.73
2022-08-12T12:03:57.535Z,26.19
2022-08-12T12:06:24.821Z,27.37
2022-08-12T12:08:53.935Z,25.62
2022-08-12T12:11:22.108Z,25.86
2022-08-12T12:14:07.813Z,26.38
2022-08-12T12:16:39.626Z,25.03
2022-08-12T12:19:06.917Z,25.80
2022-08-12T12:21:46.929Z,25.03
2022-08-12T12:24:22.040Z,25.47
2022-08-12T12:26:59.524Z,26.20
2022-08-12T12:30:18.339Z,25.69
2022-08-12T12:32:15.185Z,24.89
2022-08-12T12:35:14.211Z,24.50
2022-08-12T12:38:05.527Z,26.33
2022-08-12T12:40:14.946Z,25.01
2022-08-12T12:42:44.372Z,25.58
2022-08-12T12:45:26.166Z,26.96
2022-08-12T12:47:57.782Z,24.88
2022-08-12T12:50:35.032Z,25.99
2022-08-12T12:53:02.627Z,24.99
2022-08-12T12:55:32.654Z,26.52
2022-08-12T12:58:04.528Z,25.06
2022-08-12T13:00:32.813Z,25.23
2022-08-12T13:03:00.021Z,27.83
2022-08-12T13:05:42.454Z,26.61
2022-08-12T13:08:28.607Z,25.86
2022-08-12T13:11:04.566Z,25.58
2022-08-12T13:14:07.278Z,26.30
2022-08-12T13:16:23.188Z,26.32
2022-08-12T13:18:50.801Z,25.91
2022-08-12T13:21:33.132Z,25.81
2022-08-12T13:24:09.616Z,25.77
2022-08-12T13:26:37.764Z,25.58
2022-08-12T13:29:04.322Z,25.21
2022-08-12T13:31:30.707Z,25.54
2022-08-12T13:34:32.464Z,25.37
2022-08-12T13:36:50.628Z,25.99
2022-08-12T13:39:21.263Z,26.34
2022-08-12T13:41:49.570Z,26.20
2022-08-12T13:44:16.713Z,26.13
2022-08-12T13:46:43.466Z,26.23
2022-08-12T13:49:17.297Z,26.83
2022-08-12T13:51:51.042Z,25.45
2022-08-12T13:54:19.701Z,25.57
2022-08-12T13:56:49.792Z,26.27
2022-08-12T13:59:20.319Z,25.70
2022-08-12T14:01:51.750Z,27.20
2022-08-12T14:04:19.258Z,27.15
2022-08-12T14:06:50.451Z,27.34
2022-08-12T14:09:18.272Z,28.15
2022-08-12T14:11:59.136Z,26.96
2022-08-12T14:14:31.653Z,26.81
2022-08-12T14:17:05.131Z,26.76
2022-08-12T14:19:38.062Z,26.74
2022-08-12T14:22:13.651Z,27.86
2022-08-12T14:24:42.270Z,27.42
2022-08-12T14:27:11.847Z,27.91
2022-08-12T14:30:04.949Z,28.11
2022-08-12T14:32:34.239Z,27.13
2022-08-12T14:35:00.675Z,27.58
2022-08-12T14:37:56.508Z,26.97
2022-08-12T14:40:18.401Z,27.69
2022-08-12T14:42:46.923Z,28.60
2022-08-12T14:45:13.742Z,27.29
2022-08-12T14:47:47.932Z,27.70
2022-08-12T14:50:57.336Z,27.66
2022-08-12T14:59:23.373Z,27.62
2022-08-12T15:01:52.234Z,27.62
2022-08-12T15:04:28.542Z,27.27
2022-08-12T15:06:56.074Z,27.44
2022-08-12T15:09:29.104Z,27.63
2022-08-12T15:12:03.755Z,27.86
2022-08-12T15:14:31.011Z,27.28
2022-08-12T15:17:00.266Z,27.68
2022-08-12T15:20:31.033Z,27.78
2022-08-12T15:22:37.912Z,28.00
2022-08-12T15:25:07.576Z,27.73
2022-08-12T15:28:03.815Z,27.68
2022-08-12T15:30:31.337Z,27.89
2022-08-12T15:32:58.000Z,27.71
2022-08-12T15:35:31.309Z,27.61
2022-08-12T15:38:10.399Z,27.35
2022-08-12T15:40:46.832Z,27.52
2022-08-12T15:44:15.670Z,27.77
2022-08-12T15:46:04.746Z,27.09
2022-08-12T15:48:34.325Z,27.02
2022-08-12T15:51:02.152Z,27.49
2022-08-12T15:53:53.431Z,27.25
2022-08-12T15:56:29.387Z,27.07
2022-08-12T15:58:58.756Z,27.71
2022-08-12T16:01:34.846Z,27.59
2022-08-12T16:04:03.216Z,26.82
2022-08-12T16:06:51.012Z,27.15
2022-08-12T16:09:45.354Z,27.53
2022-08-12T16:12:08.796Z,27.40
2022-08-12T16:14:38.625Z,26.86
2022-08-12T16:17:05.367Z,27.22
2022-08-12T16:20:02.783Z,26.77
2022-08-12T16:22:22.637Z,26.42
2022-08-12T16:24:52.084Z,26.55
2022-08-12T16:27:19.076Z,26.97
2022-08-12T16:29:52.885Z,26.65
2022-08-12T16:32:23.058Z,26.72
2022-08-12T16:34:54.665Z,26.95
2022-08-12T16:37:32.398Z,26.35
2022-08-12T16:40:04.825Z,26.65
2022-08-12T16:42:38.959Z,27.31
2022-08-12T16:45:13.704Z,27.57
2022-08-12T16:47:58.588Z,27.32
2022-08-12T16:50:31.356Z,27.70
2022-08-12T16:52:59.672Z,28.48
2022-08-12T16:55:35.058Z,28.15
2022-08-12T16:58:18.536Z,28.40
2022-08-12T17:00:54.996Z,28.43
2022-08-12T17:03:28.867Z,28.71
2022-08-12T17:05:55.977Z,28.00
2022-08-12T17:08:29.276Z,28.11
2022-08-12T17:10:56.252Z,28.37
2022-08-12T17:13:26.027Z,27.74
2022-08-12T17:16:04.891Z,27.49
2022-08-12T17:18:43.461Z,27.29
2022-08-12T17:21:20.289Z,27.44
2022-08-12T17:24:15.252Z,27.34
2022-08-12T17:26:45.068Z,26.71
2022-08-12T17:29:32.305Z,27.22
2022-08-12T17:32:08.568Z,27.20
2022-08-12T17:34:54.607Z,27.22
2022-08-12T17:37:21.445Z,27.12
2022-08-12T17:40:15.778Z,27.53
2022-08-12T17:42:35.561Z,28.31
2022-08-12T17:45:17.104Z,28.31
2022-08-12T17:47:45.466Z,28.43
2022-08-12T17:50:28.700Z,28.52
2022-08-12T17:52:58.013Z,28.28
2022-08-12T17:55:31.629Z,27.53
2022-08-12T17:58:13.885Z,27.94
2022-08-12T18:00:44.000Z,28.04
2022-08-12T18:03:13.496Z,28.50
2022-08-12T18:06:06.139Z,28.24
2022-08-12T18:08:35.577Z,28.07
2022-08-12T18:11:21.378Z,27.73
2022-08-12T18:14:07.336Z,27.97
2022-08-12T18:16:34.952Z,28.19
2022-08-12T18:19:02.427Z,28.27
2022-08-12T18:22:00.956Z,28.30
2022-08-12T18:24:22.195Z,28.44
2022-08-12T18:26:53.505Z,28.59
2022-08-12T18:29:20.748Z,28.81
2022-08-12T18:31:59.754Z,28.87
2022-08-12T18:34:32.246Z,29.15
2022-08-12T18:36:59.622Z,29.20
2022-08-12T18:39:57.871Z,29.39
2022-08-12T18:42:26.176Z,29.92
2022-08-12T18:44:58.033Z,29.88
2022-08-12T18:47:26.839Z,30.73
2022-08-12T18:50:15.083Z,31.01
2022-08-12T18:52:48.466Z,30.79
2022-08-12T18:55:15.916Z,31.35
2022-08-12T18:58:05.895Z,31.74
2022-08-12T19:00:33.414Z,32.12
2022-08-12T19:03:02.265Z,32.56
2022-08-12T19:05:52.684Z,33.53
2022-08-12T19:08:15.199Z,33.15
2022-08-12T19:10:42.796Z,34.48
2022-08-12T19:13:35.560Z,34.36
2022-08-12T19:16:09.543Z,33.97
2022-08-12T19:18:40.425Z,34.83
2022-08-12T19:21:11.893Z,34.55
2022-08-12T19:23:42.964Z,34.22
2022-08-12T19:26:12.539Z,35.03
2022-08-12T19:28:40.558Z,35.00
2022-08-12T19:31:45.132Z,35.29
2022-08-12T19:34:56.480Z,35.23
2022-08-12T19:37:27.221Z,35.91
2022-08-12T19:40:09.791Z,35.79
2022-08-12T19:42:53.617Z,35.51
2022-08-12T19:45:20.851Z,35.81
2022-08-12T19:47:48.780Z,35.74
2022-08-12T19:50:20.181Z,36.41
2022-08-12T19:52:47.276Z,35.74
2022-08-12T19:55:21.583Z,35.78
2022-08-12T19:58:03.296Z,36.12
2022-08-12T20:00:34.822Z,36.11
2022-08-12T20:03:04.256Z,36.29
2022-08-12T20:06:05.803Z,36.35
2022-08-12T20:08:34.039Z,36.51
2022-08-12T20:12:14.107Z,36.76
2022-08-12T20:14:00.456Z,36.88
2022-08-12T20:16:51.040Z,36.92
2022-08-12T20:19:15.121Z,37.34
2022-08-12T20:21:43.400Z,37.17
2022-08-12T20:24:12.211Z,37.61
2022-08-12T20:26:41.997Z,37.65
2022-08-12T20:29:10.155Z,37.58
2022-08-12T20:31:36.590Z,37.45
2022-08-12T20:34:03.768Z,37.62
2022-08-12T20:36:41.612Z,37.77
2022-08-12T20:39:37.355Z,37.83
2022-08-12T20:42:04.407Z,38.26
2022-08-12T20:44:36.323Z,38.23
2022-08-12T20:47:18.502Z,38.92
2022-08-12T20:49:55.851Z,38.50
2022-08-12T20:52:30.122Z,38.68
2022-08-12T20:54:57.647Z,38.86
2022-08-12T20:57:24.325Z,38.64
2022-08-12T20:59:52.648Z,38.98
2022-08-12T21:02:24.421Z,39.20
2022-08-12T21:05:19.935Z,39.20
2022-08-12T21:07:51.559Z,39.39
2022-08-12T21:10:21.022Z,39.47
2022-08-12T21:12:47.890Z,39.47
2022-08-12T21:15:22.878Z,39.60
2022-08-12T21:18:12.003Z,39.43
2022-08-12T21:20:52.707Z,39.89
2022-08-12T21:23:21.273Z,40.21
2022-08-12T21:25:49.156Z,39.95
2022-08-12T21:28:20.338Z,39.94
2022-08-12T21:31:11.105Z,40.24
2022-08-12T21:33:58.755Z,40.20
2022-08-12T21:36:22.609Z,40.17
2022-08-12T21:38:51.017Z,40.16
2022-08-12T21:41:20.156Z,40.81
2022-08-12T21:43:52.381Z,40.83
2022-08-12T21:46:34.530Z,40.94
2022-08-12T21:49:04.878Z,41.16
2022-08-12T21:51:49.382Z,40.83
2022-08-12T21:54:22.742Z,40.68
2022-08-12T21:56:55.563Z,41.08
2022-08-12T21:59:22.039Z,41.33
2022-08-12T22:01:49.598Z,41.71
2022-08-12T22:04:36.246Z,41.69
2022-08-12T22:07:03.219Z,41.81
2022-08-12T22:09:30.340Z,41.67
2022-08-12T22:12:48.916Z,41.82
2022-08-12T22:15:21.988Z,41.83
2022-08-12T22:17:50.541Z,41.84
2022-08-12T22:20:22.282Z,41.99
2022-08-12T22:22:53.750Z,42.11
2022-08-12T22:25:24.220Z,43.01
2022-08-12T22:28:12.399Z,42.91
2022-08-12T22:30:57.325Z,42.51
2022-08-12T22:33:24.788Z,42.71
2022-08-12T22:35:59.142Z,42.86
2022-08-12T22:38:29.155Z,42.86
2022-08-12T22:41:00.980Z,42.71
2022-08-12T22:44:00.522Z,42.82
2022-08-12T22:46:52.545Z,42.97
2022-08-12T22:49:36.563Z,43.12
2022-08-12T22:52:13.034Z,43.18
2022-08-12T22:54:46.406Z,43.18
2022-08-12T22:57:53.576Z,43.13
2022-08-12T23:00:23.889Z,43.80
2022-08-12T23:02:51.776Z,44.00
2022-08-12T23:05:23.434Z,43.64
2022-08-12T23:08:13.886Z,43.52
2022-08-12T23:10:45.081Z,43.66
2022-08-12T23:13:30.143Z,44.05
2022-08-12T23:16:10.151Z,44.61
2022-08-12T23:18:54.215Z,44.38
2022-08-12T23:21:23.743Z,44.38
2022-08-12T23:24:09.064Z,44.57
2022-08-12T23:26:55.151Z,45.26
2022-08-12T23:29:29.941Z,45.46
2022-08-12T23:32:10.104Z,44.77
2022-08-12T23:34:37.359Z,45.15
2022-08-12T23:37:05.813Z,45.10
2022-08-12T23:40:06.510Z,44.48
2022-08-12T23:42:19.987Z,44.52
2022-08-12T23:44:48.537Z,45.14
2022-08-12T23:47:21.105Z,45.59
2022-08-12T23:49:57.959Z,45.48
2022-08-12T23:52:27.677Z,45.41
2022-08-12T23:55:24.967Z,45.79
2022-08-12T23:58:17.773Z,45.57
